createdAt,value
2022-10-22T00:00:08.982Z,100.00
2022-10-22T00:02:35.809Z,100.00
2022-10-22T00:05:02.482Z,100.00
2022-10-22T00:07:29.122Z,100.00
2022-10-22T00:09:55.708Z,100.00
2022-10-22T00:12:22.552Z,100.00
2022-10-22T00:14:49.566Z,100.00
2022-10-22T00:17:17.231Z,100.00
2022-10-22T00:19:43.940Z,100.00
2022-10-22T00:22:11.944Z,100.00
2022-10-22T00:24:39.289Z,100.00
2022-10-22T00:27:07.389Z,100.00
2022-10-22T00:29:34.112Z,100.00
2022-10-22T00:32:00.748Z,100.00
2022-10-22T00:34:27.655Z,100.00
2022-10-22T00:36:57.370Z,100.00
2022-10-22T00:39:25.354Z,100.00
2022-10-22T00:41:58.491Z,100.00
2022-10-22T00:45:02.866Z,100.00
2022-10-22T00:47:54.512Z,100.00
2022-10-22T00:50:25.293Z,100.00
2022-10-22T00:52:51.995Z,100.00
2022-10-22T00:55:19.631Z,100.00
2022-10-22T00:57:46.383Z,100.00
2022-10-22T01:00:13.771Z,100.00
2022-10-22T01:02:40.507Z,100.00
2022-10-22T01:05:07.732Z,100.00
2022-10-22T01:07:45.091Z,100.00
2022-10-22T01:10:21.791Z,100.00
2022-10-22T01:13:10.312Z,100.00
2022-10-22T01:15:48.721Z,100.00
2022-10-22T01:18:38.736Z,100.00
2022-10-22T01:21:30.173Z,100.00
2022-10-22T01:24:19.757Z,100.00
2022-10-22T01:26:58.556Z,100.00
2022-10-22T01:29:29.708Z,100.00
2022-10-22T01:32:03.206Z,100.00
2022-10-22T01:34:31.022Z,100.00
2022-10-22T01:36:59.566Z,100.00
2022-10-22T01:39:27.695Z,100.00
2022-10-22T01:41:56.231Z,100.00
2022-10-22T01:47:05.000Z,100.00
2022-10-22T01:49:41.825Z,100.00
2022-10-22T01:52:19.897Z,100.00
2022-10-22T01:55:01.856Z,100.00
2022-10-22T01:57:48.610Z,100.00
2022-10-22T02:00:17.605Z,100.00
2022-10-22T02:02:50.976Z,100.00
2022-10-22T02:05:23.460Z,100.00
2022-10-22T02:07:53.167Z,100.00
2022-10-22T02:10:20.316Z,100.00
2022-10-22T02:12:51.150Z,100.00
2022-10-22T02:15:19.206Z,100.00
2022-10-22T02:17:46.671Z,100.00
2022-10-22T02:20:17.981Z,100.00
2022-10-22T02:22:44.792Z,100.00
2022-10-22T02:25:11.851Z,100.00
2022-10-22T02:27:45.722Z,100.00
2022-10-22T02:33:04.591Z,100.00
2022-10-22T02:35:31.553Z,100.00
2022-10-22T02:37:59.392Z,100.00
2022-10-22T02:40:26.526Z,100.00
2022-10-22T02:42:53.384Z,100.00
2022-10-22T02:45:20.789Z,100.00
2022-10-22T02:47:47.591Z,100.00
2022-10-22T02:50:14.464Z,100.00
2022-10-22T02:52:41.317Z,100.00
2022-10-22T02:55:09.042Z,100.00
2022-10-22T02:57:35.652Z,100.00
2022-10-22T03:00:02.260Z,100.00
2022-10-22T03:02:28.870Z,100.00
2022-10-22T03:04:55.481Z,100.00
2022-10-22T03:07:22.128Z,100.00
2022-10-22T03:09:48.884Z,100.00
2022-10-22T03:12:15.482Z,100.00
2022-10-22T03:14:42.105Z,100.00
2022-10-22T03:17:08.832Z,100.00
2022-10-22T03:19:35.875Z,100.00
2022-10-22T03:22:08.279Z,100.00
2022-10-22T03:24:43.147Z,100.00
2022-10-22T03:27:10.336Z,100.00
2022-10-22T03:29:39.341Z,100.00
2022-10-22T03:32:06.526Z,100.00
2022-10-22T03:34:33.100Z,100.00
2022-10-22T03:37:00.700Z,100.00
2022-10-22T03:39:30.017Z,100.00
2022-10-22T03:41:56.715Z,100.00
2022-10-22T03:44:23.992Z,100.00
2022-10-22T03:46:50.727Z,100.00
2022-10-22T03:49:17.447Z,100.00
2022-10-22T03:51:44.113Z,100.00
2022-10-22T03:54:10.765Z,100.00
2022-10-22T03:56:37.423Z,100.00
2022-10-22T03:59:04.476Z,100.00
2022-10-22T04:01:31.597Z,100.00
2022-10-22T04:03:58.996Z,100.00
2022-10-22T04:06:25.763Z,100.00
2022-10-22T04:08:52.713Z,100.00
2022-10-22T04:11:19.325Z,100.00
2022-10-22T04:13:45.903Z,100.00
2022-10-22T04:16:19.704Z,100.00
2022-10-22T04:18:47.464Z,100.00
2022-10-22T04:21:16.149Z,100.00
2022-10-22T04:23:47.407Z,100.00
2022-10-22T04:26:14.384Z,100.00
2022-10-22T04:28:41.437Z,100.00
2022-10-22T04:31:12.978Z,100.00
2022-10-22T04:33:40.334Z,100.00
2022-10-22T04:36:09.364Z,100.00
2022-10-22T04:38:36.139Z,100.00
2022-10-22T04:41:21.056Z,100.00
2022-10-22T04:43:48.224Z,100.00
2022-10-22T04:46:16.599Z,100.00
2022-10-22T04:48:44.311Z,100.00
2022-10-22T04:51:13.748Z,100.00
2022-10-22T04:53:43.201Z,100.00
2022-10-22T04:56:22.226Z,100.00
2022-10-22T04:58:53.122Z,100.00
2022-10-22T05:01:22.046Z,100.00
2022-10-22T05:03:49.894Z,100.00
2022-10-22T05:06:17.045Z,100.00
2022-10-22T05:08:43.777Z,100.00
2022-10-22T05:11:12.249Z,100.00
2022-10-22T05:13:38.940Z,100.00
2022-10-22T05:16:05.840Z,100.00
2022-10-22T05:18:35.831Z,100.00
2022-10-22T05:21:03.181Z,100.00
2022-10-22T05:23:29.783Z,100.00
2022-10-22T05:25:56.385Z,100.00
2022-10-22T05:28:23.101Z,100.00
2022-10-22T05:30:54.374Z,100.00
2022-10-22T05:33:24.074Z,100.00
2022-10-22T05:35:51.090Z,100.00
2022-10-22T05:38:18.667Z,100.00
2022-10-22T05:40:45.524Z,100.00
2022-10-22T05:43:12.541Z,100.00
2022-10-22T05:45:42.564Z,100.00
2022-10-22T05:48:09.901Z,100.00
2022-10-22T05:50:37.463Z,100.00
2022-10-22T05:53:07.541Z,100.00
2022-10-22T05:55:38.968Z,100.00
2022-10-22T05:58:05.537Z,100.00
2022-10-22T06:00:34.545Z,100.00
2022-10-22T06:03:01.126Z,100.00
2022-10-22T06:05:27.745Z,100.00
2022-10-22T06:07:57.156Z,100.00
2022-10-22T06:10:24.014Z,100.00
2022-10-22T06:12:50.688Z,100.00
2022-10-22T06:15:18.399Z,100.00
2022-10-22T06:17:45.559Z,100.00
2022-10-22T06:20:12.957Z,100.00
2022-10-22T06:22:40.163Z,100.00
2022-10-22T06:25:08.532Z,100.00
2022-10-22T06:27:35.261Z,100.00
2022-10-22T06:30:01.935Z,100.00
2022-10-22T06:32:28.516Z,100.00
2022-10-22T06:35:18.443Z,100.00
2022-10-22T06:37:45.030Z,100.00
2022-10-22T06:40:13.389Z,100.00
2022-10-22T06:42:40.206Z,100.00
2022-10-22T06:45:07.883Z,100.00
2022-10-22T06:47:34.502Z,100.00
2022-10-22T06:50:01.084Z,100.00
2022-10-22T06:52:27.691Z,100.00
2022-10-22T06:54:54.292Z,100.00
2022-10-22T06:57:20.881Z,100.00
2022-10-22T06:59:47.624Z,100.00
2022-10-22T07:02:14.618Z,100.00
2022-10-22T07:04:41.308Z,100.00
2022-10-22T07:07:07.881Z,100.00
2022-10-22T07:09:34.474Z,100.00
2022-10-22T07:12:01.100Z,100.00
2022-10-22T07:14:27.733Z,100.00
2022-10-22T07:16:54.372Z,100.00
2022-10-22T07:19:20.959Z,100.00
2022-10-22T07:21:47.557Z,100.00
2022-10-22T07:24:14.171Z,100.00
2022-10-22T07:26:40.832Z,100.00
2022-10-22T07:29:07.538Z,100.00
2022-10-22T07:31:34.134Z,100.00
2022-10-22T07:34:00.747Z,100.00
2022-10-22T07:36:27.466Z,100.00
2022-10-22T07:38:56.747Z,100.00
2022-10-22T07:41:23.995Z,100.00
2022-10-22T07:43:51.307Z,100.00
2022-10-22T07:46:18.737Z,100.00
2022-10-22T07:48:45.544Z,100.00
2022-10-22T07:51:12.251Z,100.00
2022-10-22T07:53:39.110Z,100.00
2022-10-22T07:56:06.168Z,100.00
2022-10-22T07:58:32.847Z,100.00
2022-10-22T08:01:01.072Z,100.00
2022-10-22T08:03:28.610Z,100.00
2022-10-22T08:05:55.428Z,100.00
2022-10-22T08:08:24.881Z,100.00
2022-10-22T08:10:54.067Z,99.95
2022-10-22T08:13:20.713Z,99.18
2022-10-22T08:15:47.410Z,98.80
2022-10-22T08:18:15.674Z,98.08
2022-10-22T08:20:42.455Z,97.83
2022-10-22T08:23:09.119Z,97.54
2022-10-22T08:25:36.165Z,97.46
2022-10-22T08:28:02.862Z,97.11
2022-10-22T08:30:29.945Z,96.59
2022-10-22T08:32:56.762Z,96.49
2022-10-22T08:35:26.014Z,96.01
2022-10-22T08:37:52.609Z,96.27
2022-10-22T08:40:39.787Z,95.71
2022-10-22T08:43:27.891Z,95.43
2022-10-22T08:45:57.404Z,95.38
2022-10-22T08:48:29.956Z,95.35
2022-10-22T08:50:57.330Z,95.01
2022-10-22T08:53:32.699Z,94.58
2022-10-22T08:55:59.327Z,94.65
2022-10-22T08:58:40.529Z,94.29
2022-10-22T09:01:14.077Z,93.93
2022-10-22T09:03:42.940Z,93.97
2022-10-22T09:06:18.927Z,93.92
2022-10-22T09:08:47.007Z,93.24
2022-10-22T09:11:29.171Z,93.09
2022-10-22T09:13:57.374Z,93.39
2022-10-22T09:16:36.153Z,93.38
2022-10-22T09:19:18.819Z,92.98
2022-10-22T09:22:06.425Z,92.88
2022-10-22T09:24:47.728Z,92.84
2022-10-22T09:27:31.349Z,92.73
2022-10-22T09:29:58.053Z,92.79
2022-10-22T09:32:25.711Z,92.76
2022-10-22T09:34:56.534Z,92.87
2022-10-22T09:37:26.900Z,92.28
2022-10-22T09:40:05.291Z,92.22
2022-10-22T09:42:33.755Z,91.80
2022-10-22T09:45:00.681Z,91.56
2022-10-22T09:47:43.381Z,92.18
2022-10-22T09:50:41.408Z,91.66
2022-10-22T09:53:27.316Z,91.92
2022-10-22T09:58:22.942Z,91.53
2022-10-22T10:00:59.021Z,90.87
2022-10-22T10:03:28.829Z,90.87
2022-10-22T10:06:21.020Z,90.32
2022-10-22T10:08:48.349Z,90.36
2022-10-22T10:11:39.303Z,89.91
2022-10-22T10:14:21.831Z,90.15
2022-10-22T10:17:23.583Z,89.67
2022-10-22T10:20:17.978Z,89.59
2022-10-22T10:22:58.080Z,89.28
2022-10-22T10:25:52.320Z,88.84
2022-10-22T10:28:54.776Z,88.59
2022-10-22T10:31:42.858Z,88.61
2022-10-22T10:34:39.380Z,87.98
2022-10-22T10:37:29.561Z,88.23
2022-10-22T10:40:13.115Z,87.70
2022-10-22T10:42:55.733Z,87.19
2022-10-22T10:45:27.865Z,87.21
2022-10-22T10:48:10.284Z,87.27
2022-10-22T10:51:06.494Z,86.90
2022-10-22T10:53:52.579Z,86.70
2022-10-22T10:56:47.995Z,86.75
2022-10-22T10:59:18.097Z,86.46
2022-10-22T11:02:01.475Z,86.37
2022-10-22T11:05:07.090Z,85.60
2022-10-22T11:08:03.062Z,86.06
2022-10-22T11:10:38.014Z,85.72
2022-10-22T11:13:23.293Z,85.39
2022-10-22T11:15:56.947Z,85.63
2022-10-22T11:19:06.046Z,85.83
2022-10-22T11:21:40.146Z,85.63
2022-10-22T11:24:20.860Z,85.33
2022-10-22T11:26:52.312Z,84.70
2022-10-22T11:29:44.639Z,84.41
2022-10-22T11:32:16.104Z,84.02
2022-10-22T11:34:47.410Z,83.93
2022-10-22T11:37:14.492Z,83.50
2022-10-22T11:39:53.916Z,84.03
2022-10-22T11:42:30.488Z,83.89
2022-10-22T11:45:06.313Z,84.03
2022-10-22T11:48:12.633Z,84.29
2022-10-22T11:50:47.180Z,84.40
2022-10-22T11:53:13.823Z,83.79
2022-10-22T11:55:51.506Z,83.92
2022-10-22T11:58:39.582Z,84.02
2022-10-22T12:01:09.279Z,84.32
2022-10-22T12:03:41.060Z,84.01
2022-10-22T12:06:15.133Z,84.14
2022-10-22T12:08:57.865Z,84.01
2022-10-22T12:11:50.019Z,83.94
2022-10-22T12:14:30.807Z,84.00
2022-10-22T12:17:13.131Z,83.60
2022-10-22T12:19:42.851Z,83.68
2022-10-22T12:22:34.824Z,83.49
2022-10-22T12:25:23.167Z,83.25
2022-10-22T12:27:55.141Z,83.58
2022-10-22T12:30:30.023Z,83.27
2022-10-22T12:33:00.359Z,83.15
2022-10-22T12:35:30.126Z,83.20
2022-10-22T12:38:18.927Z,82.43
2022-10-22T12:40:48.444Z,82.46
2022-10-22T12:43:32.225Z,81.94
2022-10-22T12:45:59.643Z,82.00
2022-10-22T12:48:40.537Z,81.49
2022-10-22T12:51:09.543Z,81.35
2022-10-22T12:53:46.306Z,81.76
2022-10-22T12:56:33.936Z,81.69
2022-10-22T12:59:10.665Z,81.04
2022-10-22T13:01:39.369Z,81.27
2022-10-22T13:04:32.408Z,80.89
2022-10-22T13:07:18.250Z,80.76
2022-10-22T13:09:58.226Z,80.88
2022-10-22T13:12:27.733Z,80.65
2022-10-22T13:14:54.583Z,80.20
2022-10-22T13:17:42.233Z,80.47
2022-10-22T13:20:21.437Z,80.49
2022-10-22T13:23:06.664Z,80.43
2022-10-22T13:25:35.513Z,80.45
2022-10-22T13:28:18.549Z,80.07
2022-10-22T13:30:53.874Z,80.39
2022-10-22T13:33:36.326Z,80.78
2022-10-22T13:36:03.792Z,80.54
2022-10-22T13:38:30.597Z,80.69
2022-10-22T13:41:03.326Z,80.06
2022-10-22T13:43:29.929Z,80.46
2022-10-22T13:45:59.056Z,80.14
2022-10-22T13:48:26.660Z,80.21
2022-10-22T13:50:53.780Z,80.38
2022-10-22T13:53:25.992Z,80.60
2022-10-22T13:55:52.870Z,80.34
2022-10-22T13:58:21.858Z,80.63
2022-10-22T14:00:55.900Z,80.69
2022-10-22T14:03:25.379Z,80.91
2022-10-22T14:05:52.059Z,80.64
2022-10-22T14:08:21.390Z,80.90
2022-10-22T14:10:48.300Z,80.75
2022-10-22T14:13:16.821Z,80.63
2022-10-22T14:15:56.033Z,81.05
2022-10-22T14:18:30.839Z,80.62
2022-10-22T14:21:00.220Z,80.27
2022-10-22T14:23:29.084Z,80.46
2022-10-22T14:25:58.609Z,79.97
2022-10-22T14:28:27.081Z,80.28
2022-10-22T14:30:54.631Z,80.32
2022-10-22T14:33:30.380Z,80.02
2022-10-22T14:35:59.843Z,80.26
2022-10-22T14:38:26.806Z,79.72
2022-10-22T14:40:54.870Z,79.47
2022-10-22T14:43:27.222Z,79.89
2022-10-22T14:45:54.087Z,79.84
2022-10-22T14:48:20.805Z,79.69
2022-10-22T14:50:48.216Z,79.67
2022-10-22T14:53:16.885Z,79.86
2022-10-22T14:55:44.668Z,79.67
2022-10-22T14:58:12.395Z,80.08
2022-10-22T15:00:41.274Z,79.50
2022-10-22T15:03:08.090Z,79.38
2022-10-22T15:05:36.384Z,78.45
2022-10-22T15:08:05.942Z,78.07
2022-10-22T15:10:36.066Z,77.64
2022-10-22T15:13:02.675Z,77.37
2022-10-22T15:15:34.003Z,76.88
2022-10-22T15:18:02.052Z,76.84
2022-10-22T15:20:29.042Z,76.73
2022-10-22T15:23:03.841Z,77.20
2022-10-22T15:25:30.715Z,77.50
2022-10-22T15:28:01.815Z,77.83
2022-10-22T15:30:31.543Z,77.69
2022-10-22T15:32:58.296Z,78.53
2022-10-22T15:35:30.536Z,78.58
2022-10-22T15:37:57.238Z,78.85
2022-10-22T15:40:27.470Z,78.55
2022-10-22T15:43:32.262Z,78.69
2022-10-22T15:46:08.844Z,78.95
2022-10-22T15:48:38.045Z,79.12
2022-10-22T15:51:10.286Z,78.88
2022-10-22T15:53:39.179Z,79.06
2022-10-22T15:56:06.031Z,79.57
2022-10-22T15:58:33.014Z,79.69
2022-10-22T16:01:07.350Z,79.97
2022-10-22T16:03:34.717Z,80.12
2022-10-22T16:06:04.929Z,80.57
2022-10-22T16:08:31.614Z,80.40
2022-10-22T16:11:01.635Z,80.46
2022-10-22T16:13:30.327Z,81.04
2022-10-22T16:15:59.642Z,81.03
2022-10-22T16:18:39.344Z,81.62
2022-10-22T16:21:11.951Z,81.43
2022-10-22T16:23:38.725Z,82.01
2022-10-22T16:26:05.533Z,81.81
2022-10-22T16:31:06.378Z,82.47
2022-10-22T16:33:41.275Z,82.95
2022-10-22T16:36:14.556Z,82.83
2022-10-22T16:38:41.328Z,83.20
2022-10-22T16:41:25.345Z,82.92
2022-10-22T16:43:55.181Z,83.00
2022-10-22T16:46:22.940Z,83.05
2022-10-22T16:48:56.178Z,82.70
2022-10-22T16:51:24.735Z,83.20
2022-10-22T16:53:52.355Z,83.14
2022-10-22T16:56:19.099Z,82.90
2022-10-22T16:58:48.011Z,83.56
2022-10-22T17:01:18.009Z,83.29
2022-10-22T17:03:45.070Z,83.87
2022-10-22T17:06:12.099Z,84.38
2022-10-22T17:08:42.358Z,84.69
2022-10-22T17:11:13.589Z,84.83
2022-10-22T17:13:42.005Z,85.31
2022-10-22T17:16:10.703Z,86.10
2022-10-22T17:18:39.121Z,85.96
2022-10-22T17:23:58.361Z,87.02
2022-10-22T17:29:09.985Z,87.95
2022-10-22T17:31:42.930Z,88.61
2022-10-22T17:34:16.137Z,89.03
2022-10-22T17:36:43.446Z,89.18
2022-10-22T17:39:14.128Z,89.31
2022-10-22T17:41:52.862Z,89.74
2022-10-22T17:44:25.798Z,89.71
2022-10-22T17:46:52.565Z,89.65
2022-10-22T17:49:29.694Z,89.90
2022-10-22T17:52:03.457Z,90.09
2022-10-22T17:54:40.404Z,90.90
2022-10-22T17:57:10.428Z,91.05
2022-10-22T17:59:47.200Z,91.19
2022-10-22T18:02:16.617Z,91.27
2022-10-22T18:04:43.991Z,91.68
2022-10-22T18:07:11.012Z,91.84
2022-10-22T18:09:44.914Z,91.93
2022-10-22T18:12:19.027Z,92.05
2022-10-22T18:14:47.182Z,92.00
2022-10-22T18:20:00.805Z,92.83
2022-10-22T18:22:27.587Z,92.36
2022-10-22T18:24:54.444Z,92.99
2022-10-22T18:27:21.107Z,93.11
2022-10-22T18:29:49.987Z,93.05
2022-10-22T18:32:16.903Z,93.46
2022-10-22T18:34:43.642Z,93.83
2022-10-22T18:37:10.324Z,93.92
2022-10-22T18:39:37.042Z,94.10
2022-10-22T18:42:06.346Z,94.24
2022-10-22T18:44:34.973Z,94.20
2022-10-22T18:47:01.635Z,94.70
2022-10-22T18:49:28.250Z,95.06
2022-10-22T18:51:54.893Z,95.02
2022-10-22T18:54:23.534Z,95.08
2022-10-22T18:56:51.530Z,94.84
2022-10-22T18:59:20.742Z,94.87
2022-10-22T19:01:47.632Z,95.17
2022-10-22T19:04:14.417Z,95.33
2022-10-22T19:06:45.240Z,95.69
2022-10-22T19:09:13.726Z,95.52
2022-10-22T19:11:40.470Z,95.77
2022-10-22T19:14:07.184Z,95.48
2022-10-22T19:16:35.324Z,95.74
2022-10-22T19:22:59.739Z,95.97
2022-10-22T19:25:45.808Z,96.31
2022-10-22T19:28:38.980Z,96.50
2022-10-22T19:31:07.410Z,96.11
2022-10-22T19:33:37.130Z,96.79
2022-10-22T19:36:05.732Z,96.52
2022-10-22T19:38:32.409Z,96.57
2022-10-22T19:40:59.006Z,96.46
2022-10-22T19:43:26.691Z,96.98
2022-10-22T19:45:53.270Z,96.60
2022-10-22T19:48:19.916Z,96.97
2022-10-22T19:50:47.141Z,96.52
2022-10-22T19:53:14.336Z,96.66
2022-10-22T19:55:44.871Z,96.82
2022-10-22T19:58:12.198Z,96.37
2022-10-22T20:00:39.172Z,96.41
2022-10-22T20:03:05.977Z,96.94
2022-10-22T20:05:32.614Z,97.15
2022-10-22T20:07:59.551Z,97.26
2022-10-22T20:10:26.652Z,96.88
2022-10-22T20:12:53.363Z,97.50
2022-10-22T20:15:21.605Z,96.87
2022-10-22T20:17:48.549Z,97.11
2022-10-22T20:20:17.328Z,97.22
2022-10-22T20:22:44.504Z,97.14
2022-10-22T20:25:12.423Z,97.11
2022-10-22T20:27:39.677Z,97.34
2022-10-22T20:30:07.289Z,97.04
2022-10-22T20:32:37.220Z,97.20
2022-10-22T20:35:04.747Z,97.23
2022-10-22T20:37:31.606Z,97.07
2022-10-22T20:39:58.415Z,96.95
2022-10-22T20:42:25.107Z,97.04
2022-10-22T20:44:51.893Z,97.02
2022-10-22T20:47:18.626Z,97.05
2022-10-22T20:49:51.386Z,97.21
2022-10-22T20:52:19.189Z,96.94
2022-10-22T20:54:46.033Z,97.02
2022-10-22T20:57:13.526Z,96.94
2022-10-22T20:59:40.153Z,97.02
2022-10-22T21:02:06.919Z,97.07
2022-10-22T21:04:34.147Z,96.58
2022-10-22T21:07:00.905Z,96.82
2022-10-22T21:09:28.131Z,96.73
2022-10-22T21:14:23.403Z,96.82
2022-10-22T21:16:51.263Z,96.51
2022-10-22T21:19:19.601Z,96.52
2022-10-22T21:21:46.193Z,96.52
2022-10-22T21:24:13.101Z,96.54
2022-10-22T21:26:41.429Z,96.56
2022-10-22T21:29:09.022Z,96.59
2022-10-22T21:31:35.907Z,97.13
2022-10-22T21:34:02.618Z,96.77
2022-10-22T21:36:29.273Z,97.02
2022-10-22T21:38:55.968Z,97.17
2022-10-22T21:41:24.084Z,97.37
2022-10-22T21:43:51.209Z,97.39
2022-10-22T21:46:23.436Z,97.45
2022-10-22T21:49:02.202Z,97.25
2022-10-22T21:51:31.301Z,97.83
2022-10-22T21:53:58.259Z,97.45
2022-10-22T21:56:30.078Z,97.72
2022-10-22T21:58:56.708Z,97.80
2022-10-22T22:01:23.521Z,98.03
2022-10-22T22:03:51.553Z,98.02
2022-10-22T22:06:22.750Z,98.59
2022-10-22T22:08:51.193Z,98.25
2022-10-22T22:11:20.835Z,98.58
2022-10-22T22:13:48.876Z,98.82
2022-10-22T22:16:22.537Z,99.08
2022-10-22T22:18:52.376Z,99.34
2022-10-22T22:21:20.762Z,99.33
2022-10-22T22:23:49.079Z,99.55
2022-10-22T22:26:18.995Z,100.00
2022-10-22T22:28:45.693Z,99.81
2022-10-22T22:31:33.464Z,99.99
2022-10-22T22:34:04.824Z,100.00
2022-10-22T22:36:40.007Z,100.00
2022-10-22T22:39:08.043Z,100.00
2022-10-22T22:41:34.850Z,100.00
2022-10-22T22:44:02.136Z,100.00
2022-10-22T22:46:28.776Z,100.00
2022-10-22T22:48:55.392Z,100.00
2022-10-22T22:51:22.119Z,100.00
2022-10-22T22:53:48.960Z,100.00
2022-10-22T22:56:18.419Z,100.00
2022-10-22T22:58:45.214Z,100.00
2022-10-22T23:01:22.208Z,100.00
2022-10-22T23:03:53.611Z,100.00
2022-10-22T23:06:20.204Z,100.00
2022-10-22T23:08:50.219Z,100.00
2022-10-22T23:11:17.007Z,100.00
2022-10-22T23:13:43.649Z,100.00
2022-10-22T23:16:18.404Z,100.00
2022-10-22T23:18:45.940Z,100.00
2022-10-22T23:21:14.643Z,100.00
2022-10-22T23:23:49.859Z,100.00
2022-10-22T23:26:23.058Z,100.00
2022-10-22T23:28:49.727Z,100.00
2022-10-22T23:31:18.120Z,100.00
2022-10-22T23:33:45.206Z,100.00
2022-10-22T23:36:12.493Z,100.00
2022-10-22T23:38:39.892Z,100.00
2022-10-22T23:41:06.774Z,100.00
2022-10-22T23:43:36.217Z,100.00
2022-10-22T23:46:07.049Z,100.00
2022-10-22T23:48:34.352Z,100.00
2022-10-22T23:51:06.081Z,100.00
2022-10-22T23:53:32.784Z,100.00
2022-10-22T23:56:04.301Z,100.00
2022-10-22T23:58:31.026Z,100.00
